sensor_id;sensor_type;location;lat;lon;timestamp;temperature;humidity
7461;DHT22;6757;52.258;12.840;2022-12-10T00:02:26;-1.10;99.90
7461;DHT22;6757;52.258;12.840;2022-12-10T00:04:54;-1.10;99.90
7461;DHT22;6757;52.258;12.840;2022-12-10T00:07:21;-1.10;99.90
7461;DHT22;6757;52.258;12.840;2022-12-10T00:09:48;-1.10;99.90
7461;DHT22;6757;52.258;12.840;2022-12-10T00:12:15;-1.10;99.90
7461;DHT22;6757;52.258;12.840;2022-12-10T00:14:43;-1.10;99.90
7461;DHT22;6757;52.258;12.840;2022-12-10T00:17:10;-1.10;99.90
7461;DHT22;6757;52.258;12.840;2022-12-10T00:19:37;-1.10;99.90
7461;DHT22;6757;52.258;12.840;2022-12-10T00:22:04;-1.10;99.90
7461;DHT22;6757;52.258;12.840;2022-12-10T00:24:31;-1.10;99.90
7461;DHT22;6757;52.258;12.840;2022-12-10T00:26:58;-1.00;99.90
7461;DHT22;6757;52.258;12.840;2022-12-10T00:29:25;-1.10;99.90
7461;DHT22;6757;52.258;12.840;2022-12-10T00:31:53;-1.10;99.90
7461;DHT22;6757;52.258;12.840;2022-12-10T00:34:20;-1.10;99.90
7461;DHT22;6757;52.258;12.840;2022-12-10T00:36:48;-1.10;99.90
7461;DHT22;6757;52.258;12.840;2022-12-10T00:39:18;-1.10;99.90
7461;DHT22;6757;52.258;12.840;2022-12-10T00:41:46;-1.10;99.90
7461;DHT22;6757;52.258;12.840;2022-12-10T00:44:14;-1.10;99.90
7461;DHT22;6757;52.258;12.840;2022-12-10T00:46:42;-1.10;99.90
7461;DHT22;6757;52.258;12.840;2022-12-10T00:49:11;-1.10;99.90
7461;DHT22;6757;52.258;12.840;2022-12-10T00:51:38;-1.10;99.90
7461;DHT22;6757;52.258;12.840;2022-12-10T00:54:07;-1.10;99.90
7461;DHT22;6757;52.258;12.840;2022-12-10T00:56:35;-1.10;99.90
7461;DHT22;6757;52.258;12.840;2022-12-10T00:59:02;-1.10;99.90
7461;DHT22;6757;52.258;12.840;2022-12-10T01:01:31;-1.10;99.90
7461;DHT22;6757;52.258;12.840;2022-12-10T01:04:01;-1.10;99.90
7461;DHT22;6757;52.258;12.840;2022-12-10T01:06:32;-1.10;99.90
7461;DHT22;6757;52.258;12.840;2022-12-10T01:09:03;-1.10;99.90
7461;DHT22;6757;52.258;12.840;2022-12-10T01:11:33;-1.10;99.90
7461;DHT22;6757;52.258;12.840;2022-12-10T01:14:01;-1.10;99.90
7461;DHT22;6757;52.258;12.840;2022-12-10T01:16:28;-1.10;99.90
7461;DHT22;6757;52.258;12.840;2022-12-10T01:18:55;-1.00;99.90
7461;DHT22;6757;52.258;12.840;2022-12-10T01:21:25;-1.00;99.90
7461;DHT22;6757;52.258;12.840;2022-12-10T01:23:55;-1.10;99.90
7461;DHT22;6757;52.258;12.840;2022-12-10T01:26:26;-1.00;99.90
7461;DHT22;6757;52.258;12.840;2022-12-10T01:28:55;-1.00;99.90
7461;DHT22;6757;52.258;12.840;2022-12-10T01:31:24;-1.10;99.90
7461;DHT22;6757;52.258;12.840;2022-12-10T01:33:52;-1.10;99.90
7461;DHT22;6757;52.258;12.840;2022-12-10T01:36:22;-1.00;99.90
7461;DHT22;6757;52.258;12.840;2022-12-10T01:38:51;-1.00;99.90
7461;DHT22;6757;52.258;12.840;2022-12-10T01:41:22;-1.00;99.90
7461;DHT22;6757;52.258;12.840;2022-12-10T01:43:56;-1.00;99.90
7461;DHT22;6757;52.258;12.840;2022-12-10T01:46:26;-1.00;99.90
7461;DHT22;6757;52.258;12.840;2022-12-10T01:48:54;-1.00;99.90
7461;DHT22;6757;52.258;12.840;2022-12-10T01:51:22;-1.10;99.90
7461;DHT22;6757;52.258;12.840;2022-12-10T01:53:50;-1.10;99.90
7461;DHT22;6757;52.258;12.840;2022-12-10T01:56:20;-1.10;99.90
7461;DHT22;6757;52.258;12.840;2022-12-10T01:58:48;-1.10;99.90
7461;DHT22;6757;52.258;12.840;2022-12-10T02:01:24;-1.10;99.90
7461;DHT22;6757;52.258;12.840;2022-12-10T02:04:04;-1.10;99.90
7461;DHT22;6757;52.258;12.840;2022-12-10T02:06:44;-1.10;99.90
7461;DHT22;6757;52.258;12.840;2022-12-10T02:09:20;-1.10;99.90
7461;DHT22;6757;52.258;12.840;2022-12-10T02:12:02;-1.10;99.90
7461;DHT22;6757;52.258;12.840;2022-12-10T02:14:41;-1.10;99.90
7461;DHT22;6757;52.258;12.840;2022-12-10T02:17:15;-1.10;99.90
7461;DHT22;6757;52.258;12.840;2022-12-10T02:19:57;-1.10;99.90
7461;DHT22;6757;52.258;12.840;2022-12-10T02:22:31;-1.10;99.90
7461;DHT22;6757;52.258;12.840;2022-12-10T02:25:02;-1.20;99.90
7461;DHT22;6757;52.258;12.840;2022-12-10T02:27:37;-1.10;99.90
7461;DHT22;6757;52.258;12.840;2022-12-10T02:30:11;-1.20;99.90
7461;DHT22;6757;52.258;12.840;2022-12-10T02:32:40;-1.20;99.90
7461;DHT22;6757;52.258;12.840;2022-12-10T02:35:14;-1.20;99.90
7461;DHT22;6757;52.258;12.840;2022-12-10T02:37:47;-1.20;99.90
7461;DHT22;6757;52.258;12.840;2022-12-10T02:40:19;-1.20;99.90
7461;DHT22;6757;52.258;12.840;2022-12-10T02:42:50;-1.10;99.90
7461;DHT22;6757;52.258;12.840;2022-12-10T02:45:21;-1.10;99.90
7461;DHT22;6757;52.258;12.840;2022-12-10T02:47:51;-1.10;99.90
7461;DHT22;6757;52.258;12.840;2022-12-10T02:50:21;-1.10;99.90
7461;DHT22;6757;52.258;12.840;2022-12-10T02:52:48;-1.10;99.90
7461;DHT22;6757;52.258;12.840;2022-12-10T02:55:16;-1.10;99.90
7461;DHT22;6757;52.258;12.840;2022-12-10T02:57:54;-1.10;99.90
7461;DHT22;6757;52.258;12.840;2022-12-10T03:00:31;-1.10;99.90
7461;DHT22;6757;52.258;12.840;2022-12-10T03:03:14;-1.10;99.90
7461;DHT22;6757;52.258;12.840;2022-12-10T03:05:49;-1.10;99.90
7461;DHT22;6757;52.258;12.840;2022-12-10T03:08:24;-1.10;99.90
7461;DHT22;6757;52.258;12.840;2022-12-10T03:10:57;-1.10;99.90
7461;DHT22;6757;52.258;12.840;2022-12-10T03:13:29;-1.10;99.90
7461;DHT22;6757;52.258;12.840;2022-12-10T03:16:01;-1.10;99.90
7461;DHT22;6757;52.258;12.840;2022-12-10T03:18:31;-1.10;99.90
7461;DHT22;6757;52.258;12.840;2022-12-10T03:21:03;-1.10;99.90
7461;DHT22;6757;52.258;12.840;2022-12-10T03:23:34;-1.10;99.90
7461;DHT22;6757;52.258;12.840;2022-12-10T03:26:03;-1.10;99.90
7461;DHT22;6757;52.258;12.840;2022-12-10T03:28:32;-1.00;99.90
7461;DHT22;6757;52.258;12.840;2022-12-10T03:31:04;-1.10;99.90
7461;DHT22;6757;52.258;12.840;2022-12-10T03:33:33;-1.10;99.90
7461;DHT22;6757;52.258;12.840;2022-12-10T03:36:00;-1.10;99.90
7461;DHT22;6757;52.258;12.840;2022-12-10T03:38:27;-1.10;99.90
7461;DHT22;6757;52.258;12.840;2022-12-10T03:40:54;-1.20;99.90
7461;DHT22;6757;52.258;12.840;2022-12-10T03:43:21;-1.20;99.90
7461;DHT22;6757;52.258;12.840;2022-12-10T03:45:48;-1.20;99.90
7461;DHT22;6757;52.258;12.840;2022-12-10T03:48:17;-1.20;99.90
7461;DHT22;6757;52.258;12.840;2022-12-10T03:50:44;-1.20;99.90
7461;DHT22;6757;52.258;12.840;2022-12-10T03:53:11;-1.20;99.90
7461;DHT22;6757;52.258;12.840;2022-12-10T03:55:37;-1.20;99.90
7461;DHT22;6757;52.258;12.840;2022-12-10T03:58:05;-1.20;99.90
7461;DHT22;6757;52.258;12.840;2022-12-10T04:00:32;-1.20;99.90
7461;DHT22;6757;52.258;12.840;2022-12-10T04:02:59;-1.20;99.90
7461;DHT22;6757;52.258;12.840;2022-12-10T04:05:27;-1.20;99.90
7461;DHT22;6757;52.258;12.840;2022-12-10T04:07:54;-1.20;99.90
7461;DHT22;6757;52.258;12.840;2022-12-10T04:10:21;-1.20;99.90
7461;DHT22;6757;52.258;12.840;2022-12-10T04:12:48;-1.20;99.90
7461;DHT22;6757;52.258;12.840;2022-12-10T04:15:38;-1.20;99.90
7461;DHT22;6757;52.258;12.840;2022-12-10T04:18:23;-1.20;99.90
7461;DHT22;6757;52.258;12.840;2022-12-10T04:20:51;-1.20;99.90
7461;DHT22;6757;52.258;12.840;2022-12-10T04:23:50;-1.20;99.90
7461;DHT22;6757;52.258;12.840;2022-12-10T04:26:35;-1.30;99.90
7461;DHT22;6757;52.258;12.840;2022-12-10T04:29:22;-1.20;99.90
7461;DHT22;6757;52.258;12.840;2022-12-10T04:31:49;-1.30;99.90
7461;DHT22;6757;52.258;12.840;2022-12-10T04:34:16;-1.30;99.90
7461;DHT22;6757;52.258;12.840;2022-12-10T04:36:45;-1.30;99.90
7461;DHT22;6757;52.258;12.840;2022-12-10T04:39:12;-1.30;99.90
7461;DHT22;6757;52.258;12.840;2022-12-10T04:41:40;-1.30;99.90
7461;DHT22;6757;52.258;12.840;2022-12-10T04:44:08;-1.30;99.90
7461;DHT22;6757;52.258;12.840;2022-12-10T04:46:35;-1.30;99.90
7461;DHT22;6757;52.258;12.840;2022-12-10T04:49:03;-1.30;99.90
7461;DHT22;6757;52.258;12.840;2022-12-10T04:51:31;-1.40;99.90
7461;DHT22;6757;52.258;12.840;2022-12-10T04:54:00;-1.40;99.90
7461;DHT22;6757;52.258;12.840;2022-12-10T04:56:27;-1.40;99.90
7461;DHT22;6757;52.258;12.840;2022-12-10T04:58:55;-1.40;99.90
7461;DHT22;6757;52.258;12.840;2022-12-10T05:01:22;-1.40;99.90
7461;DHT22;6757;52.258;12.840;2022-12-10T05:03:50;-1.40;99.90
7461;DHT22;6757;52.258;12.840;2022-12-10T05:06:18;-1.40;99.90
7461;DHT22;6757;52.258;12.840;2022-12-10T05:08:46;-1.40;99.90
7461;DHT22;6757;52.258;12.840;2022-12-10T05:11:16;-1.40;99.90
7461;DHT22;6757;52.258;12.840;2022-12-10T05:13:44;-1.40;99.90
7461;DHT22;6757;52.258;12.840;2022-12-10T05:16:13;-1.40;99.90
7461;DHT22;6757;52.258;12.840;2022-12-10T05:18:43;-1.40;99.90
7461;DHT22;6757;52.258;12.840;2022-12-10T05:21:13;-1.40;99.90
7461;DHT22;6757;52.258;12.840;2022-12-10T05:23:43;-1.40;99.90
7461;DHT22;6757;52.258;12.840;2022-12-10T05:26:12;-1.40;99.90
7461;DHT22;6757;52.258;12.840;2022-12-10T05:28:44;-1.40;99.90
7461;DHT22;6757;52.258;12.840;2022-12-10T05:31:14;-1.40;99.90
7461;DHT22;6757;52.258;12.840;2022-12-10T05:33:42;-1.40;99.90
7461;DHT22;6757;52.258;12.840;2022-12-10T05:36:10;-1.40;99.90
7461;DHT22;6757;52.258;12.840;2022-12-10T05:38:38;-1.40;99.90
7461;DHT22;6757;52.258;12.840;2022-12-10T05:41:11;-1.40;99.90
7461;DHT22;6757;52.258;12.840;2022-12-10T05:43:42;-1.50;99.90
7461;DHT22;6757;52.258;12.840;2022-12-10T05:46:12;-1.40;99.90
7461;DHT22;6757;52.258;12.840;2022-12-10T05:48:40;-1.40;99.90
7461;DHT22;6757;52.258;12.840;2022-12-10T05:51:08;-1.40;99.90
7461;DHT22;6757;52.258;12.840;2022-12-10T05:53:36;-1.50;99.90
7461;DHT22;6757;52.258;12.840;2022-12-10T05:56:05;-1.40;99.90
7461;DHT22;6757;52.258;12.840;2022-12-10T05:58:34;-1.40;99.90
7461;DHT22;6757;52.258;12.840;2022-12-10T06:01:06;-1.40;99.90
7461;DHT22;6757;52.258;12.840;2022-12-10T06:03:34;-1.40;99.90
7461;DHT22;6757;52.258;12.840;2022-12-10T06:06:01;-1.40;99.90
7461;DHT22;6757;52.258;12.840;2022-12-10T06:08:27;-1.50;99.90
7461;DHT22;6757;52.258;12.840;2022-12-10T06:10:54;-1.40;99.90
7461;DHT22;6757;52.258;12.840;2022-12-10T06:13:23;-1.50;99.90
7461;DHT22;6757;52.258;12.840;2022-12-10T06:15:50;-1.50;99.90
7461;DHT22;6757;52.258;12.840;2022-12-10T06:18:18;-1.50;99.90
7461;DHT22;6757;52.258;12.840;2022-12-10T06:20:46;-1.50;99.90
7461;DHT22;6757;52.258;12.840;2022-12-10T06:23:13;-1.40;99.90
7461;DHT22;6757;52.258;12.840;2022-12-10T06:25:40;-1.50;99.90
7461;DHT22;6757;52.258;12.840;2022-12-10T06:28:08;-1.50;99.90
7461;DHT22;6757;52.258;12.840;2022-12-10T06:30:35;-1.50;99.90
7461;DHT22;6757;52.258;12.840;2022-12-10T06:33:02;-1.50;99.90
7461;DHT22;6757;52.258;12.840;2022-12-10T06:35:30;-1.40;99.90
7461;DHT22;6757;52.258;12.840;2022-12-10T06:37:57;-1.40;99.90
7461;DHT22;6757;52.258;12.840;2022-12-10T06:40:24;-1.40;99.90
7461;DHT22;6757;52.258;12.840;2022-12-10T06:42:51;-1.40;99.90
7461;DHT22;6757;52.258;12.840;2022-12-10T06:45:18;-1.50;99.90
7461;DHT22;6757;52.258;12.840;2022-12-10T06:47:45;-1.40;99.90
7461;DHT22;6757;52.258;12.840;2022-12-10T06:50:12;-1.40;99.90
7461;DHT22;6757;52.258;12.840;2022-12-10T06:52:40;-1.50;99.90
7461;DHT22;6757;52.258;12.840;2022-12-10T06:55:08;-1.50;99.90
7461;DHT22;6757;52.258;12.840;2022-12-10T06:57:35;-1.40;99.90
7461;DHT22;6757;52.258;12.840;2022-12-10T07:00:03;-1.40;99.90
7461;DHT22;6757;52.258;12.840;2022-12-10T07:02:30;-1.40;99.90
7461;DHT22;6757;52.258;12.840;2022-12-10T07:04:58;-1.40;99.90
7461;DHT22;6757;52.258;12.840;2022-12-10T07:07:24;-1.30;99.90
7461;DHT22;6757;52.258;12.840;2022-12-10T07:09:53;-1.30;99.90
7461;DHT22;6757;52.258;12.840;2022-12-10T07:12:20;-1.20;99.90
7461;DHT22;6757;52.258;12.840;2022-12-10T07:14:47;-1.20;99.90
7461;DHT22;6757;52.258;12.840;2022-12-10T07:17:14;-1.20;99.90
7461;DHT22;6757;52.258;12.840;2022-12-10T07:19:41;-1.00;99.90
7461;DHT22;6757;52.258;12.840;2022-12-10T07:22:07;-0.80;99.90
7461;DHT22;6757;52.258;12.840;2022-12-10T07:24:35;-0.80;99.90
7461;DHT22;6757;52.258;12.840;2022-12-10T07:27:05;-0.80;99.90
7461;DHT22;6757;52.258;12.840;2022-12-10T07:29:33;-0.80;99.90
7461;DHT22;6757;52.258;12.840;2022-12-10T07:32:01;-0.90;99.90
7461;DHT22;6757;52.258;12.840;2022-12-10T07:34:28;-0.80;99.90
7461;DHT22;6757;52.258;12.840;2022-12-10T07:36:54;-1.00;99.90
7461;DHT22;6757;52.258;12.840;2022-12-10T07:39:21;-1.00;99.90
7461;DHT22;6757;52.258;12.840;2022-12-10T07:41:49;-1.00;99.90
7461;DHT22;6757;52.258;12.840;2022-12-10T07:44:19;-1.00;99.90
7461;DHT22;6757;52.258;12.840;2022-12-10T07:46:47;-1.00;99.90
7461;DHT22;6757;52.258;12.840;2022-12-10T07:49:14;-1.10;99.90
7461;DHT22;6757;52.258;12.840;2022-12-10T07:51:44;-1.00;99.90
7461;DHT22;6757;52.258;12.840;2022-12-10T07:54:11;-1.10;99.90
7461;DHT22;6757;52.258;12.840;2022-12-10T07:56:38;-1.10;99.90
7461;DHT22;6757;52.258;12.840;2022-12-10T07:59:05;-1.10;99.90
7461;DHT22;6757;52.258;12.840;2022-12-10T08:01:34;-1.10;99.90
7461;DHT22;6757;52.258;12.840;2022-12-10T08:04:01;-1.10;99.90
7461;DHT22;6757;52.258;12.840;2022-12-10T08:06:29;-1.10;99.90
7461;DHT22;6757;52.258;12.840;2022-12-10T08:08:58;-1.10;99.90
7461;DHT22;6757;52.258;12.840;2022-12-10T08:11:26;-1.10;99.90
7461;DHT22;6757;52.258;12.840;2022-12-10T08:13:54;-1.00;99.90
7461;DHT22;6757;52.258;12.840;2022-12-10T08:16:23;-0.90;99.90
7461;DHT22;6757;52.258;12.840;2022-12-10T08:18:53;-1.00;99.90
7461;DHT22;6757;52.258;12.840;2022-12-10T08:21:22;-1.00;99.90
7461;DHT22;6757;52.258;12.840;2022-12-10T08:23:50;-0.90;99.90
7461;DHT22;6757;52.258;12.840;2022-12-10T08:26:19;-1.00;99.90
7461;DHT22;6757;52.258;12.840;2022-12-10T08:28:49;-1.00;99.90
7461;DHT22;6757;52.258;12.840;2022-12-10T08:31:18;-1.00;99.90
7461;DHT22;6757;52.258;12.840;2022-12-10T08:33:46;-1.10;99.90
7461;DHT22;6757;52.258;12.840;2022-12-10T08:36:15;-1.00;99.90
7461;DHT22;6757;52.258;12.840;2022-12-10T08:38:45;-1.00;99.90
7461;DHT22;6757;52.258;12.840;2022-12-10T08:41:14;-1.10;99.90
7461;DHT22;6757;52.258;12.840;2022-12-10T08:43:42;-1.00;99.90
7461;DHT22;6757;52.258;12.840;2022-12-10T08:46:10;-1.00;99.90
7461;DHT22;6757;52.258;12.840;2022-12-10T08:48:38;-1.00;99.90
7461;DHT22;6757;52.258;12.840;2022-12-10T08:51:06;-1.00;99.90
7461;DHT22;6757;52.258;12.840;2022-12-10T08:53:35;-1.00;99.90
7461;DHT22;6757;52.258;12.840;2022-12-10T08:56:02;-1.00;99.90
7461;DHT22;6757;52.258;12.840;2022-12-10T08:58:30;-1.00;99.90
7461;DHT22;6757;52.258;12.840;2022-12-10T09:00:57;-1.00;99.90
7461;DHT22;6757;52.258;12.840;2022-12-10T09:03:24;-1.00;99.90
7461;DHT22;6757;52.258;12.840;2022-12-10T09:05:51;-1.00;99.90
7461;DHT22;6757;52.258;12.840;2022-12-10T09:08:18;-1.10;99.90
7461;DHT22;6757;52.258;12.840;2022-12-10T09:10:47;-1.10;99.90
7461;DHT22;6757;52.258;12.840;2022-12-10T09:13:14;-1.10;99.90
7461;DHT22;6757;52.258;12.840;2022-12-10T09:15:40;-1.10;99.90
7461;DHT22;6757;52.258;12.840;2022-12-10T09:18:07;-1.10;99.90
7461;DHT22;6757;52.258;12.840;2022-12-10T09:20:36;-1.10;99.90
7461;DHT22;6757;52.258;12.840;2022-12-10T09:23:03;-1.10;99.90
7461;DHT22;6757;52.258;12.840;2022-12-10T09:25:30;-1.10;99.90
7461;DHT22;6757;52.258;12.840;2022-12-10T09:27:59;-1.10;99.90
7461;DHT22;6757;52.258;12.840;2022-12-10T09:30:26;-1.10;99.90
7461;DHT22;6757;52.258;12.840;2022-12-10T09:32:53;-1.10;99.90
7461;DHT22;6757;52.258;12.840;2022-12-10T09:35:20;-1.10;99.90
7461;DHT22;6757;52.258;12.840;2022-12-10T09:37:47;-1.00;99.90
7461;DHT22;6757;52.258;12.840;2022-12-10T09:40:15;-1.00;99.90
7461;DHT22;6757;52.258;12.840;2022-12-10T09:42:49;-1.00;99.90
7461;DHT22;6757;52.258;12.840;2022-12-10T09:45:26;-1.00;99.90
7461;DHT22;6757;52.258;12.840;2022-12-10T09:48:02;-1.00;99.90
7461;DHT22;6757;52.258;12.840;2022-12-10T09:50:41;-1.00;99.90
7461;DHT22;6757;52.258;12.840;2022-12-10T09:53:17;-1.00;99.90
7461;DHT22;6757;52.258;12.840;2022-12-10T09:55:47;-1.00;99.90
7461;DHT22;6757;52.258;12.840;2022-12-10T09:58:18;-1.00;99.90
7461;DHT22;6757;52.258;12.840;2022-12-10T10:00:54;-1.00;99.90
7461;DHT22;6757;52.258;12.840;2022-12-10T10:03:23;-0.90;99.90
7461;DHT22;6757;52.258;12.840;2022-12-10T10:05:52;-1.00;99.90
7461;DHT22;6757;52.258;12.840;2022-12-10T10:08:27;-0.90;99.90
7461;DHT22;6757;52.258;12.840;2022-12-10T10:10:56;-0.90;99.90
7461;DHT22;6757;52.258;12.840;2022-12-10T10:13:30;-0.90;99.90
7461;DHT22;6757;52.258;12.840;2022-12-10T10:16:17;-0.90;99.90
7461;DHT22;6757;52.258;12.840;2022-12-10T10:18:52;-0.80;99.90
7461;DHT22;6757;52.258;12.840;2022-12-10T10:21:24;-0.40;99.90
7461;DHT22;6757;52.258;12.840;2022-12-10T10:23:53;0.00;99.90
7461;DHT22;6757;52.258;12.840;2022-12-10T10:26:20;0.10;99.90
7461;DHT22;6757;52.258;12.840;2022-12-10T10:28:48;0.20;99.90
7461;DHT22;6757;52.258;12.840;2022-12-10T10:31:22;0.10;99.90
7461;DHT22;6757;52.258;12.840;2022-12-10T10:33:52;0.10;99.90
7461;DHT22;6757;52.258;12.840;2022-12-10T10:36:27;0.00;99.90
7461;DHT22;6757;52.258;12.840;2022-12-10T10:38:55;-0.10;99.90
7461;DHT22;6757;52.258;12.840;2022-12-10T10:41:24;-0.20;99.90
7461;DHT22;6757;52.258;12.840;2022-12-10T10:43:59;-0.30;99.90
7461;DHT22;6757;52.258;12.840;2022-12-10T10:46:30;-0.30;99.90
7461;DHT22;6757;52.258;12.840;2022-12-10T10:49:23;-0.40;99.90
7461;DHT22;6757;52.258;12.840;2022-12-10T10:51:53;-0.50;99.90
7461;DHT22;6757;52.258;12.840;2022-12-10T10:54:32;-0.50;99.90
7461;DHT22;6757;52.258;12.840;2022-12-10T10:57:02;-0.60;99.90
7461;DHT22;6757;52.258;12.840;2022-12-10T10:59:33;-0.60;99.90
7461;DHT22;6757;52.258;12.840;2022-12-10T11:02:13;-0.60;99.90
7461;DHT22;6757;52.258;12.840;2022-12-10T11:04:47;-0.60;99.90
7461;DHT22;6757;52.258;12.840;2022-12-10T11:07:21;-0.60;99.90
7461;DHT22;6757;52.258;12.840;2022-12-10T11:09:52;-0.60;99.90
7461;DHT22;6757;52.258;12.840;2022-12-10T11:12:21;-0.60;99.90
7461;DHT22;6757;52.258;12.840;2022-12-10T11:14:54;-0.60;99.90
7461;DHT22;6757;52.258;12.840;2022-12-10T11:17:25;-0.70;99.90
7461;DHT22;6757;52.258;12.840;2022-12-10T11:19:56;-0.70;99.90
7461;DHT22;6757;52.258;12.840;2022-12-10T11:22:26;-0.70;99.90
7461;DHT22;6757;52.258;12.840;2022-12-10T11:24:56;-0.70;99.90
7461;DHT22;6757;52.258;12.840;2022-12-10T11:27:45;-0.70;99.90
7461;DHT22;6757;52.258;12.840;2022-12-10T11:30:17;-0.70;99.90
7461;DHT22;6757;52.258;12.840;2022-12-10T11:33:09;-0.70;99.90
7461;DHT22;6757;52.258;12.840;2022-12-10T11:35:50;-0.60;99.90
7461;DHT22;6757;52.258;12.840;2022-12-10T11:38:28;-0.60;99.90
7461;DHT22;6757;52.258;12.840;2022-12-10T11:41:02;-0.60;99.90
7461;DHT22;6757;52.258;12.840;2022-12-10T11:43:50;-0.60;99.90
7461;DHT22;6757;52.258;12.840;2022-12-10T11:46:38;-0.60;99.90
7461;DHT22;6757;52.258;12.840;2022-12-10T11:49:25;-0.60;99.90
7461;DHT22;6757;52.258;12.840;2022-12-10T11:52:04;-0.50;99.90
7461;DHT22;6757;52.258;12.840;2022-12-10T11:54:53;-0.50;99.90
7461;DHT22;6757;52.258;12.840;2022-12-10T11:57:38;-0.50;99.90
7461;DHT22;6757;52.258;12.840;2022-12-10T12:00:19;-0.50;99.90
7461;DHT22;6757;52.258;12.840;2022-12-10T12:03:21;-0.50;99.90
7461;DHT22;6757;52.258;12.840;2022-12-10T12:06:08;-0.50;99.90
7461;DHT22;6757;52.258;12.840;2022-12-10T12:08:51;-0.50;99.90
7461;DHT22;6757;52.258;12.840;2022-12-10T12:11:32;-0.50;99.90
7461;DHT22;6757;52.258;12.840;2022-12-10T12:14:21;-0.60;99.90
7461;DHT22;6757;52.258;12.840;2022-12-10T12:16:54;-0.50;99.90
7461;DHT22;6757;52.258;12.840;2022-12-10T12:19:33;-0.50;99.90
7461;DHT22;6757;52.258;12.840;2022-12-10T12:22:11;-0.60;99.90
7461;DHT22;6757;52.258;12.840;2022-12-10T12:24:42;-0.60;99.90
7461;DHT22;6757;52.258;12.840;2022-12-10T12:27:18;-0.60;99.90
7461;DHT22;6757;52.258;12.840;2022-12-10T12:30:06;-0.60;99.90
7461;DHT22;6757;52.258;12.840;2022-12-10T12:32:49;-0.60;99.90
7461;DHT22;6757;52.258;12.840;2022-12-10T12:35:22;-0.60;99.90
7461;DHT22;6757;52.258;12.840;2022-12-10T12:38:00;-0.60;99.90
7461;DHT22;6757;52.258;12.840;2022-12-10T12:40:35;-0.60;99.90
7461;DHT22;6757;52.258;12.840;2022-12-10T12:43:10;-0.60;99.90
7461;DHT22;6757;52.258;12.840;2022-12-10T12:45:41;-0.50;99.90
7461;DHT22;6757;52.258;12.840;2022-12-10T12:48:16;-0.60;99.90
7461;DHT22;6757;52.258;12.840;2022-12-10T12:50:50;-0.60;99.90
7461;DHT22;6757;52.258;12.840;2022-12-10T12:53:23;-0.50;99.90
7461;DHT22;6757;52.258;12.840;2022-12-10T12:55:57;-0.50;99.90
7461;DHT22;6757;52.258;12.840;2022-12-10T12:58:34;-0.50;99.90
7461;DHT22;6757;52.258;12.840;2022-12-10T13:01:12;-0.50;99.90
7461;DHT22;6757;52.258;12.840;2022-12-10T13:03:45;-0.50;99.90
7461;DHT22;6757;52.258;12.840;2022-12-10T13:06:18;-0.50;99.90
7461;DHT22;6757;52.258;12.840;2022-12-10T13:08:53;-0.50;99.90
7461;DHT22;6757;52.258;12.840;2022-12-10T13:11:33;-0.50;99.90
7461;DHT22;6757;52.258;12.840;2022-12-10T13:14:17;-0.60;99.90
7461;DHT22;6757;52.258;12.840;2022-12-10T13:17:27;-0.60;99.90
7461;DHT22;6757;52.258;12.840;2022-12-10T13:20:32;-0.60;99.90
7461;DHT22;6757;52.258;12.840;2022-12-10T13:23:01;-0.60;99.90
7461;DHT22;6757;52.258;12.840;2022-12-10T13:25:41;-0.60;99.90
7461;DHT22;6757;52.258;12.840;2022-12-10T13:28:27;-0.60;99.90
7461;DHT22;6757;52.258;12.840;2022-12-10T13:31:17;-0.60;99.90
7461;DHT22;6757;52.258;12.840;2022-12-10T13:33:52;-0.60;99.90
7461;DHT22;6757;52.258;12.840;2022-12-10T13:37:14;-0.60;99.90
7461;DHT22;6757;52.258;12.840;2022-12-10T13:39:54;-0.60;99.90
7461;DHT22;6757;52.258;12.840;2022-12-10T13:42:34;-0.60;99.90
7461;DHT22;6757;52.258;12.840;2022-12-10T13:45:27;-0.60;99.90
7461;DHT22;6757;52.258;12.840;2022-12-10T13:48:30;-0.60;99.90
7461;DHT22;6757;52.258;12.840;2022-12-10T13:51:18;-0.60;99.90
7461;DHT22;6757;52.258;12.840;2022-12-10T13:54:03;-0.60;99.90
7461;DHT22;6757;52.258;12.840;2022-12-10T13:56:44;-0.70;99.90
7461;DHT22;6757;52.258;12.840;2022-12-10T13:59:22;-0.60;99.90
7461;DHT22;6757;52.258;12.840;2022-12-10T14:02:02;-0.70;99.90
7461;DHT22;6757;52.258;12.840;2022-12-10T14:05:00;-0.60;99.90
7461;DHT22;6757;52.258;12.840;2022-12-10T14:07:34;-0.70;99.90
7461;DHT22;6757;52.258;12.840;2022-12-10T14:10:04;-0.70;99.90
7461;DHT22;6757;52.258;12.840;2022-12-10T14:12:37;-0.70;99.90
7461;DHT22;6757;52.258;12.840;2022-12-10T14:15:08;-0.70;99.90
7461;DHT22;6757;52.258;12.840;2022-12-10T14:17:43;-0.70;99.90
7461;DHT22;6757;52.258;12.840;2022-12-10T14:20:14;-0.70;99.90
7461;DHT22;6757;52.258;12.840;2022-12-10T14:22:46;-0.70;99.90
7461;DHT22;6757;52.258;12.840;2022-12-10T14:25:17;-0.60;99.90
7461;DHT22;6757;52.258;12.840;2022-12-10T14:27:47;-0.70;99.90
7461;DHT22;6757;52.258;12.840;2022-12-10T14:30:17;-0.60;99.90
7461;DHT22;6757;52.258;12.840;2022-12-10T14:32:46;-0.60;99.90
7461;DHT22;6757;52.258;12.840;2022-12-10T14:35:15;-0.60;99.90
7461;DHT22;6757;52.258;12.840;2022-12-10T14:37:44;-0.70;99.90
7461;DHT22;6757;52.258;12.840;2022-12-10T14:40:19;-0.70;99.90
7461;DHT22;6757;52.258;12.840;2022-12-10T14:42:49;-0.70;99.90
7461;DHT22;6757;52.258;12.840;2022-12-10T14:45:16;-0.70;99.90
7461;DHT22;6757;52.258;12.840;2022-12-10T14:47:43;-0.80;99.90
7461;DHT22;6757;52.258;12.840;2022-12-10T14:50:12;-0.90;99.90
7461;DHT22;6757;52.258;12.840;2022-12-10T14:52:41;-0.90;99.90
7461;DHT22;6757;52.258;12.840;2022-12-10T14:55:12;-0.90;99.90
7461;DHT22;6757;52.258;12.840;2022-12-10T14:57:44;-1.00;99.90
7461;DHT22;6757;52.258;12.840;2022-12-10T15:00:14;-0.70;99.90
7461;DHT22;6757;52.258;12.840;2022-12-10T15:02:45;-0.30;99.90
7461;DHT22;6757;52.258;12.840;2022-12-10T15:05:17;-0.10;99.90
7461;DHT22;6757;52.258;12.840;2022-12-10T15:07:51;0.00;99.90
7461;DHT22;6757;52.258;12.840;2022-12-10T15:10:25;0.00;99.90
7461;DHT22;6757;52.258;12.840;2022-12-10T15:12:56;-0.20;99.90
7461;DHT22;6757;52.258;12.840;2022-12-10T15:15:27;-0.30;99.90
7461;DHT22;6757;52.258;12.840;2022-12-10T15:18:00;-0.50;99.90
7461;DHT22;6757;52.258;12.840;2022-12-10T15:20:30;-0.60;99.90
7461;DHT22;6757;52.258;12.840;2022-12-10T15:23:12;-0.80;99.90
7461;DHT22;6757;52.258;12.840;2022-12-10T15:25:45;-0.90;99.90
7461;DHT22;6757;52.258;12.840;2022-12-10T15:28:23;-1.00;99.90
7461;DHT22;6757;52.258;12.840;2022-12-10T15:30:55;-1.10;99.90
7461;DHT22;6757;52.258;12.840;2022-12-10T15:33:37;-1.20;99.90
7461;DHT22;6757;52.258;12.840;2022-12-10T15:36:15;-1.30;99.90
7461;DHT22;6757;52.258;12.840;2022-12-10T15:38:44;-1.40;99.90
7461;DHT22;6757;52.258;12.840;2022-12-10T15:44:23;-1.60;99.90
7461;DHT22;6757;52.258;12.840;2022-12-10T15:46:58;-1.70;99.90
7461;DHT22;6757;52.258;12.840;2022-12-10T15:49:27;-1.70;99.90
7461;DHT22;6757;52.258;12.840;2022-12-10T15:51:54;-1.80;99.90
7461;DHT22;6757;52.258;12.840;2022-12-10T15:54:27;-1.80;99.90
7461;DHT22;6757;52.258;12.840;2022-12-10T15:56:56;-1.90;99.90
7461;DHT22;6757;52.258;12.840;2022-12-10T15:59:24;-1.90;99.90
7461;DHT22;6757;52.258;12.840;2022-12-10T16:01:51;-2.00;99.90
7461;DHT22;6757;52.258;12.840;2022-12-10T16:04:18;-2.00;99.90
7461;DHT22;6757;52.258;12.840;2022-12-10T16:06:45;-2.10;99.90
7461;DHT22;6757;52.258;12.840;2022-12-10T16:09:12;-2.10;99.90
7461;DHT22;6757;52.258;12.840;2022-12-10T16:11:39;-2.20;99.90
7461;DHT22;6757;52.258;12.840;2022-12-10T16:14:06;-2.20;99.90
7461;DHT22;6757;52.258;12.840;2022-12-10T16:16:36;-2.20;99.90
7461;DHT22;6757;52.258;12.840;2022-12-10T16:19:07;-2.30;99.90
7461;DHT22;6757;52.258;12.840;2022-12-10T16:21:36;-2.30;99.90